Time;durP1;ratioP1;P1;durP2;ratioP2;P2;SDS_P1;SDS_P2;PMS_P1;PMS_P2;Temp;Humidity;BMP_temperature;BMP_pressure;BME280_temperature;BME280_humidity;BME280_pressure;Samples;Min_cycle;Max_cycle;Signal;HPM_P1;HPM_P2
2021/05/29 00:00:18;;;;;;;5.95;4.25;;;;;;;8.87;78.12;93460.63;2081515;28;20025;-85
2021/05/29 00:01:19;;;;;;;5.25;3.85;;;;;;;8.84;77.69;93454.19;2099395;28;20024;-87
2021/05/29 00:02:20;;;;;;;9.60;4.80;;;;;;;8.81;76.84;93452.31;2089883;28;20065;-85
2021/05/29 00:03:23;;;;;;;6.22;4.45;;;;;;;8.83;77.78;93444.69;2090045;28;20024;-87
2021/05/29 00:04:24;;;;;;;5.07;3.95;;;;;;;8.84;77.91;93456.84;2090745;28;20043;-85
2021/05/29 00:05:24;;;;;;;5.60;3.92;;;;;;;8.82;78.08;93448.47;2088765;28;20037;-87
2021/05/29 00:06:25;;;;;;;9.30;4.20;;;;;;;8.85;78.46;93454.94;2093269;28;20032;-85
2021/05/29 00:07:26;;;;;;;5.85;3.60;;;;;;;8.80;79.21;93443.56;2104125;28;20024;-86
2021/05/29 00:08:27;;;;;;;7.72;3.80;;;;;;;8.83;78.89;93450.78;2098026;28;20016;-85
2021/05/29 00:09:28;;;;;;;8.02;3.92;;;;;;;8.81;80.49;93446.97;2090821;28;20024;-85
2021/05/29 00:10:28;;;;;;;5.28;3.58;;;;;;;8.85;79.34;93450.38;2098013;28;20044;-86
2021/05/29 00:11:29;;;;;;;5.75;4.28;;;;;;;8.80;79.07;93456.13;2097959;28;20039;-85
2021/05/29 00:12:30;;;;;;;4.70;4.00;;;;;;;8.75;78.20;93451.22;2090260;28;20493;-86
2021/05/29 00:13:31;;;;;;;4.03;3.70;;;;;;;8.79;78.49;93446.63;2089892;28;20557;-86
2021/05/29 00:14:34;;;;;;;6.13;3.92;;;;;;;8.81;78.99;93450.38;2099922;28;20024;-86
2021/05/29 00:15:35;;;;;;;6.20;4.00;;;;;;;8.84;79.87;93448.84;2112472;28;20630;-86
2021/05/29 00:16:36;;;;;;;6.93;4.10;;;;;;;8.85;79.69;93450.38;2114656;28;20057;-86
2021/05/29 00:17:36;;;;;;;4.13;3.72;;;;;;;8.81;78.76;93446.97;2106448;28;20024;-86
2021/05/29 00:18:38;;;;;;;4.35;3.80;;;;;;;8.76;78.66;93455.41;2089776;28;20112;-85
2021/05/29 00:19:39;;;;;;;5.47;4.05;;;;;;;8.81;78.36;93446.97;2091386;28;20044;-85
2021/05/29 00:20:40;;;;;;;4.97;4.22;;;;;;;8.79;78.47;93442.03;2101863;28;20028;-86
2021/05/29 00:21:41;;;;;;;7.95;4.38;;;;;;;8.83;78.97;93455.34;2114807;28;20027;-86
2021/05/29 00:22:42;;;;;;;4.72;3.63;;;;;;;8.80;79.17;93456.88;2106229;28;20481;-87
2021/05/29 00:23:43;;;;;;;6.10;4.25;;;;;;;8.82;79.30;93448.47;2089300;28;20021;-85
2021/05/29 00:24:44;;;;;;;3.92;3.63;;;;;;;8.77;78.83;93451.56;2098169;28;20024;-86
2021/05/29 00:25:45;;;;;;;4.72;3.83;;;;;;;8.76;79.09;93447.41;2097637;28;20043;-87
2021/05/29 00:26:46;;;;;;;8.40;4.50;;;;;;;8.76;78.76;93439.41;2098052;28;20069;-86
2021/05/29 00:27:47;;;;;;;7.03;4.68;;;;;;;8.76;78.31;93442.84;2102830;28;20117;-86
2021/05/29 00:28:47;;;;;;;5.10;4.10;;;;;;;8.77;78.37;93446.25;2105939;28;20114;-86
2021/05/29 00:29:48;;;;;;;7.03;4.57;;;;;;;8.72;79.06;93447.44;2103181;28;20057;-86
2021/05/29 00:30:49;;;;;;;4.57;4.18;;;;;;;8.73;78.57;93450.84;2093806;28;20032;-85
2021/05/29 00:31:49;;;;;;;5.03;4.53;;;;;;;8.79;78.58;93446.63;2097826;28;20024;-86
2021/05/29 00:32:50;;;;;;;7.32;4.38;;;;;;;8.68;78.29;93456.63;2097860;28;20020;-85
2021/05/29 00:33:51;;;;;;;5.00;4.50;;;;;;;8.73;78.94;93437.53;2097332;28;20040;-86
2021/05/29 00:34:51;;;;;;;7.00;4.70;;;;;;;8.74;79.13;93449.72;2114954;28;20440;-86
2021/05/29 00:35:53;;;;;;;6.15;4.55;;;;;;;8.74;79.43;93453.16;2096716;28;20025;-86
2021/05/29 00:36:53;;;;;;;7.63;4.32;;;;;;;8.76;79.06;93450.06;2098676;28;20520;-86
2021/05/29 00:37:54;;;;;;;7.75;4.32;;;;;;;8.71;78.87;93445.19;2105263;28;20118;-87
2021/05/29 00:38:55;;;;;;;4.80;4.32;;;;;;;8.70;78.77;93441.75;2105809;28;20110;-86
2021/05/29 00:39:55;;;;;;;6.60;4.90;;;;;;;8.75;79.80;93441.31;2103618;28;20039;-86
2021/05/29 00:40:56;;;;;;;5.68;4.30;;;;;;;8.72;79.34;93444.78;2097885;28;20138;-85
2021/05/29 00:41:57;;;;;;;9.70;4.30;;;;;;;8.77;80.36;93435.59;2104557;28;20105;-85
2021/05/29 00:42:58;;;;;;;7.50;4.13;;;;;;;8.73;80.79;93446.28;2099503;28;20496;-86
2021/05/29 00:43:59;;;;;;;4.72;4.32;;;;;;;8.71;79.03;93435.28;2097448;28;20024;-87
2021/05/29 00:45:00;;;;;;;9.50;4.47;;;;;;;8.76;79.40;93431.41;2093684;28;20021;-85
2021/05/29 00:46:02;;;;;;;8.05;4.55;;;;;;;8.74;79.18;93428.41;2097390;28;20025;-85
2021/05/29 00:47:04;;;;;;;7.38;4.57;;;;;;;8.70;78.84;93433.75;2099734;28;20518;-86
2021/05/29 00:48:06;;;;;;;5.05;3.88;;;;;;;8.74;79.02;93450.47;2091889;28;20108;-86
2021/05/29 00:49:07;;;;;;;7.82;4.40;;;;;;;8.69;79.37;93444.78;2089303;28;20746;-86
2021/05/29 00:50:10;;;;;;;9.30;4.80;;;;;;;8.74;80.08;93436.41;2097659;28;20115;-87
2021/05/29 00:51:11;;;;;;;7.07;4.20;;;;;;;8.77;79.97;93439.00;2090294;28;20466;-85
2021/05/29 00:52:13;;;;;;;7.57;4.65;;;;;;;8.76;80.24;93439.41;2097720;28;20119;-85
2021/05/29 00:53:18;;;;;;;6.18;4.25;;;;;;;8.74;79.42;93433.72;2106315;28;20481;-86
2021/05/29 00:54:19;;;;;;;7.00;4.40;;;;;;;8.76;79.13;93436.75;2105703;28;20024;-85
2021/05/29 00:55:19;;;;;;;5.00;4.28;;;;;;;8.77;80.65;93443.59;2097849;28;20440;-87
2021/05/29 00:56:24;;;;;;;8.90;4.50;;;;;;;8.76;79.85;93436.75;2097634;28;20048;-86
2021/05/29 00:57:24;;;;;;;5.80;4.22;;;;;;;8.71;81.72;93434.50;2098083;28;20016;-85
2021/05/29 00:58:26;;;;;;;6.35;4.90;;;;;;;8.65;79.07;93436.84;2089195;28;20028;-85
2021/05/29 00:59:27;;;;;;;7.53;4.60;;;;;;;8.75;80.14;93435.25;2095708;28;20028;-85
2021/05/29 01:00:28;;;;;;;5.53;4.70;;;;;;;8.69;79.76;93429.59;2098977;28;20020;-85
2021/05/29 01:01:29;;;;;;;6.43;4.50;;;;;;;8.71;80.73;93426.53;2097832;28;20111;-86
2021/05/29 01:02:30;;;;;;;6.40;4.57;;;;;;;8.75;80.91;93425.34;2105755;28;20709;-85
2021/05/29 01:03:35;;;;;;;4.88;4.40;;;;;;;8.66;82.59;93430.38;2086451;28;20438;-85
2021/05/29 01:04:36;;;;;;;5.85;5.15;;;;;;;8.65;80.47;93430.75;2088172;28;20032;-85
2021/05/29 01:05:37;;;;;;;5.70;5.03;;;;;;;8.66;80.56;93440.28;2097543;28;20041;-85
2021/05/29 01:06:38;;;;;;;6.70;5.25;;;;;;;8.65;80.62;93431.53;2105787;28;20027;-85
2021/05/29 01:07:39;;;;;;;6.63;4.30;;;;;;;8.64;79.88;93434.56;2097341;28;20665;-85
2021/05/29 01:08:40;;;;;;;5.97;4.65;;;;;;;8.62;79.45;93432.31;2089212;28;20119;-86
2021/05/29 01:09:42;;;;;;;6.38;4.80;;;;;;;8.63;80.02;93427.72;2089001;28;20029;-86
2021/05/29 01:10:44;;;;;;;7.63;4.80;;;;;;;8.64;79.99;93430.00;2097771;28;20358;-85
2021/05/29 01:11:44;;;;;;;5.20;4.57;;;;;;;8.62;80.18;93426.22;2101633;28;20040;-85
2021/05/29 01:12:46;;;;;;;5.88;4.78;;;;;;;8.68;80.30;93429.97;2088815;28;20033;-87
2021/05/29 01:13:47;;;;;;;5.93;4.75;;;;;;;8.65;79.64;93430.75;2089620;28;20041;-85
2021/05/29 01:14:54;;;;;;;5.43;4.93;;;;;;;8.58;80.12;93428.91;2085499;28;20466;-86
2021/05/29 01:16:00;;;;;;;5.20;4.70;;;;;;;8.55;80.15;93422.47;2095931;28;20016;-85
2021/05/29 01:17:03;;;;;;;5.72;4.60;;;;;;;8.55;80.47;93432.38;2103470;28;20024;-85
2021/05/29 01:18:06;;;;;;;5.80;5.13;;;;;;;8.59;79.94;93427.75;2117757;27;20123;-85
2021/05/29 01:19:11;;;;;;;7.28;5.03;;;;;;;8.52;80.78;93422.53;2103890;28;20028;-86
2021/05/29 01:20:12;;;;;;;6.57;4.78;;;;;;;8.50;80.09;93427.47;2102487;28;20020;-85
2021/05/29 01:21:13;;;;;;;6.65;4.60;;;;;;;8.52;81.12;93423.28;2097506;28;20051;-86
2021/05/29 01:22:14;;;;;;;6.57;5.07;;;;;;;8.47;79.89;93423.69;2105610;28;20027;-85
2021/05/29 01:23:15;;;;;;;11.07;5.00;;;;;;;8.48;80.53;93427.88;2105513;28;20634;-86
2021/05/29 01:24:20;;;;;;;7.20;4.90;;;;;;;8.47;80.95;93428.25;2089030;28;20083;-85
2021/05/29 01:25:27;;;;;;;6.50;5.13;;;;;;;8.47;80.87;93429.03;2098450;28;20489;-85
2021/05/29 01:26:27;;;;;;;5.60;4.65;;;;;;;8.45;80.49;93431.31;2107031;28;20110;-85
2021/05/29 01:27:28;;;;;;;6.55;5.05;;;;;;;8.46;80.67;93426.75;2105635;28;20051;-85
2021/05/29 01:28:30;;;;;;;7.82;5.03;;;;;;;8.39;80.36;93430.22;2110417;28;20024;-84
2021/05/29 01:29:31;;;;;;;8.30;5.25;;;;;;;8.39;80.59;93430.22;2102930;28;20028;-84
2021/05/29 01:30:59;;;;;;;9.63;5.85;;;;;;;8.39;80.69;93432.16;2101042;28;20028;-84
2021/05/29 01:32:05;;;;;;;7.22;5.43;;;;;;;8.40;80.76;93436.31;2108588;28;20107;-86
2021/05/29 01:33:13;;;;;;;7.32;5.53;;;;;;;8.41;81.25;93429.84;2105548;28;20456;-85
2021/05/29 01:34:15;;;;;;;6.00;4.40;;;;;;;8.40;81.34;93434.41;2091051;28;20107;-85
2021/05/29 01:35:16;;;;;;;9.02;4.80;;;;;;;8.40;80.82;93431.00;2096853;28;20029;-85
2021/05/29 01:36:17;;;;;;;5.90;5.30;;;;;;;8.40;80.70;93434.41;2097207;28;20115;-86
2021/05/29 01:37:17;;;;;;;6.63;4.80;;;;;;;8.34;80.42;93433.28;2097436;28;20024;-86
2021/05/29 01:38:21;;;;;;;6.65;5.35;;;;;;;8.32;80.74;93435.59;2090284;28;20025;-85
2021/05/29 01:39:21;;;;;;;5.97;4.85;;;;;;;8.29;81.18;93431.03;2097859;28;20374;-85
2021/05/29 01:40:22;;;;;;;6.93;4.95;;;;;;;8.35;81.31;93439.38;2097457;28;20036;-86
2021/05/29 01:41:24;;;;;;;6.53;5.10;;;;;;;8.37;81.73;93432.53;2097430;28;20031;-85
2021/05/29 01:42:26;;;;;;;12.93;5.85;;;;;;;8.33;81.62;93429.84;2100152;28;20052;-85
2021/05/29 01:43:27;;;;;;;7.50;5.22;;;;;;;8.36;81.97;93430.22;2093201;28;20111;-86
2021/05/29 01:44:28;;;;;;;7.20;5.47;;;;;;;8.39;81.42;93432.91;2095277;28;20029;-86
2021/05/29 01:45:30;;;;;;;11.90;5.25;;;;;;;8.36;81.01;93435.56;2097344;28;20028;-86
2021/05/29 01:46:30;;;;;;;6.80;4.93;;;;;;;8.32;81.28;93430.25;2097791;28;20428;-86
2021/05/29 01:47:34;;;;;;;7.38;5.03;;;;;;;8.31;81.26;93429.50;2089000;28;20033;-86
2021/05/29 01:48:44;;;;;;;6.55;4.72;;;;;;;8.34;81.92;93422.66;2097486;28;20028;-85
2021/05/29 01:49:45;;;;;;;8.35;5.40;;;;;;;8.35;81.39;93418.06;2106662;28;20020;-85
2021/05/29 01:50:46;;;;;;;6.75;5.22;;;;;;;8.29;81.77;93417.72;2105403;28;20038;-86
2021/05/29 01:51:47;;;;;;;6.55;5.10;;;;;;;8.27;81.55;93422.69;2088906;28;20957;-85
2021/05/29 01:52:50;;;;;;;5.80;5.15;;;;;;;8.33;81.40;93415.78;2088788;28;20075;-85
2021/05/29 01:53:52;;;;;;;6.22;5.35;;;;;;;8.33;83.33;93421.09;2096713;28;20043;-85
2021/05/29 01:54:53;;;;;;;6.30;5.57;;;;;;;8.26;83.79;93416.63;2102040;27;20023;-86
2021/05/29 01:55:53;;;;;;;12.00;6.82;;;;;;;8.19;86.11;93411.34;2113860;28;20063;-86
2021/05/29 01:56:56;;;;;;;5.72;5.22;;;;;;;8.16;85.78;93416.69;2113571;28;20042;-87
2021/05/29 01:57:59;;;;;;;6.53;4.55;;;;;;;8.19;85.50;93414.00;2100049;28;20664;-86
2021/05/29 01:59:00;;;;;;;5.57;4.72;;;;;;;8.20;86.16;93414.75;2097720;28;20397;-85
2021/05/29 02:00:00;;;;;;;7.03;4.78;;;;;;;8.16;85.58;93416.69;2097108;28;20030;-86
2021/05/29 02:01:02;;;;;;;5.75;4.32;;;;;;;8.08;85.94;93419.41;2097036;28;20059;-85
2021/05/29 02:02:03;;;;;;;7.13;4.35;;;;;;;8.12;86.16;93414.06;2089340;28;20078;-85
2021/05/29 02:03:04;;;;;;;6.15;4.78;;;;;;;8.14;85.66;93425.06;2097737;28;20590;-86
2021/05/29 02:05:28;;;;;;;;;;;;;;;8.24;83.35;93418.91;2140342;27;20122;-86
2021/05/29 02:06:29;;;;;;;10.27;4.38;;;;;;;8.21;83.60;93417.03;2121309;28;19911;-85
2021/05/29 02:07:30;;;;;;;6.93;4.70;;;;;;;8.11;84.85;93411.78;2104268;28;20121;-86
2021/05/29 02:08:31;;;;;;;8.18;4.22;;;;;;;8.12;85.02;93422.06;2104426;28;20385;-85
2021/05/29 02:09:32;;;;;;;5.38;4.53;;;;;;;8.08;85.08;93416.75;2104354;28;20062;-85
2021/05/29 02:10:34;;;;;;;6.05;4.90;;;;;;;8.08;84.49;93416.00;2104054;28;20032;-84
2021/05/29 02:11:36;;;;;;;8.90;5.65;;;;;;;8.06;84.25;93411.03;2104764;28;20032;-86
2021/05/29 02:12:42;;;;;;;8.13;5.35;;;;;;;8.08;84.50;93416.75;2103982;28;20032;-86
2021/05/29 02:13:44;;;;;;;7.50;5.35;;;;;;;8.07;83.84;93411.81;2105713;28;20052;-85
2021/05/29 02:14:45;;;;;;;7.03;5.35;;;;;;;8.05;83.85;93412.19;2112803;28;20131;-85
2021/05/29 02:15:46;;;;;;;10.32;5.93;;;;;;;8.04;83.75;93417.94;2107632;28;20055;-85
2021/05/29 02:16:46;;;;;;;8.77;5.90;;;;;;;8.06;83.90;93424.34;2111278;28;20027;-85
2021/05/29 02:17:51;;;;;;;8.13;5.70;;;;;;;8.11;83.50;93422.44;2118369;28;20027;-85
2021/05/29 02:18:52;;;;;;;10.35;5.85;;;;;;;8.12;83.27;93426.59;2120294;28;20396;-86
2021/05/29 02:19:53;;;;;;;9.32;6.43;;;;;;;8.08;83.27;93421.31;2121325;27;20031;-85
2021/05/29 02:21:01;;;;;;;9.45;5.60;;;;;;;8.09;84.30;93412.19;2129794;27;20405;-85
2021/05/29 02:22:02;;;;;;;6.15;5.53;;;;;;;8.02;84.42;93412.97;2119642;28;20023;-84
2021/05/29 02:23:03;;;;;;;7.05;5.53;;;;;;;8.10;84.03;93415.59;2112830;28;20084;-85
2021/05/29 02:24:04;;;;;;;7.60;5.43;;;;;;;8.12;84.20;93416.72;2120942;28;20059;-85
2021/05/29 02:25:06;;;;;;;6.45;5.85;;;;;;;8.08;83.89;93418.66;2121088;28;20027;-85
2021/05/29 02:26:12;;;;;;;8.23;5.75;;;;;;;8.02;83.95;93414.88;2113047;27;20020;-86
2021/05/29 02:27:13;;;;;;;6.82;5.55;;;;;;;8.00;83.59;93419.84;2122118;27;20301;-86
2021/05/29 02:28:14;;;;;;;6.55;5.85;;;;;;;7.99;83.57;93427.09;2112736;28;20027;-85
2021/05/29 02:29:15;;;;;;;7.15;5.72;;;;;;;8.03;84.06;93427.81;2112431;27;20034;-86
2021/05/29 02:30:16;;;;;;;8.63;6.22;;;;;;;7.98;83.32;93417.56;2112608;28;20030;-85
2021/05/29 02:31:18;;;;;;;6.68;5.97;;;;;;;8.03;83.97;93421.72;2104279;28;20066;-86
2021/05/29 02:32:19;;;;;;;6.22;5.45;;;;;;;8.07;83.34;93419.78;2104724;28;20027;-85
2021/05/29 02:33:21;;;;;;;8.73;6.40;;;;;;;8.03;83.53;93419.84;2104102;28;20023;-86
2021/05/29 02:34:22;;;;;;;6.50;5.95;;;;;;;8.01;84.43;93424.03;2101409;28;20054;-85
2021/05/29 02:35:23;;;;;;;8.93;6.28;;;;;;;8.02;84.74;93418.31;2107865;28;20440;-85
2021/05/29 02:36:23;;;;;;;6.07;5.47;;;;;;;8.07;84.15;93420.53;2112493;28;20492;-85
2021/05/29 02:37:24;;;;;;;6.40;5.43;;;;;;;8.05;84.41;93422.84;2104214;28;20024;-85
2021/05/29 02:38:26;;;;;;;6.78;5.82;;;;;;;8.10;83.53;93423.59;2103906;28;20028;-84
2021/05/29 02:39:26;;;;;;;7.00;5.97;;;;;;;8.06;83.83;93419.03;2113597;27;20058;-86
2021/05/29 02:40:27;;;;;;;6.15;5.30;;;;;;;8.11;84.40;93417.09;2112536;28;20460;-86
2021/05/29 02:41:28;;;;;;;6.53;5.93;;;;;;;8.04;85.68;93421.34;2112452;28;20012;-85
2021/05/29 02:42:29;;;;;;;7.63;6.00;;;;;;;8.02;84.79;93423.63;2112557;28;20495;-85
2021/05/29 02:43:29;;;;;;;7.32;6.57;;;;;;;8.10;84.84;93419.00;2104162;28;20052;-85
2021/05/29 02:44:30;;;;;;;10.88;5.65;;;;;;;8.07;84.26;93430.44;2103683;28;20372;-86
2021/05/29 02:45:31;;;;;;;6.30;5.80;;;;;;;8.06;84.17;93424.34;2112465;28;20408;-85
2021/05/29 02:46:32;;;;;;;7.68;6.03;;;;;;;8.06;84.79;93418.28;2114545;28;20073;-85
2021/05/29 02:47:33;;;;;;;6.97;6.20;;;;;;;8.11;84.53;93419.75;2121003;28;20073;-84
2021/05/29 02:48:34;;;;;;;8.88;5.78;;;;;;;8.10;84.31;93423.59;2112182;28;20016;-85
2021/05/29 02:49:34;;;;;;;8.85;6.03;;;;;;;8.09;83.95;93422.81;2112199;28;20031;-85
2021/05/29 02:50:36;;;;;;;8.57;5.80;;;;;;;8.07;84.12;93415.22;2112665;28;20028;-84
2021/05/29 02:51:36;;;;;;;6.40;5.78;;;;;;;8.04;84.28;93420.59;2112560;28;20015;-84
2021/05/29 02:52:38;;;;;;;7.15;6.10;;;;;;;8.07;84.69;93415.22;2121047;28;20815;-85
2021/05/29 02:53:38;;;;;;;10.70;6.15;;;;;;;8.09;85.92;93417.50;2112347;28;20080;-86
2021/05/29 02:54:42;;;;;;;8.13;5.63;;;;;;;8.08;85.76;93421.31;2120768;28;20486;-86
2021/05/29 02:55:43;;;;;;;7.05;5.47;;;;;;;8.10;85.71;93421.69;2129427;27;20022;-85
2021/05/29 02:56:43;;;;;;;8.35;5.78;;;;;;;8.00;86.20;93419.84;2112577;28;20051;-85
2021/05/29 02:57:44;;;;;;;7.70;5.78;;;;;;;7.98;85.09;93419.47;2112516;28;20047;-87
2021/05/29 02:58:45;;;;;;;9.93;6.15;;;;;;;8.00;85.36;93423.28;2095333;28;20024;-85
2021/05/29 02:59:45;;;;;;;6.93;6.03;;;;;;;8.03;85.16;93425.16;2103822;28;20024;-85
2021/05/29 03:00:48;;;;;;;7.82;5.95;;;;;;;8.02;85.03;93425.53;2103958;28;20527;-85
2021/05/29 03:01:49;;;;;;;7.93;6.30;;;;;;;8.02;84.92;93428.19;2102090;28;20028;-86
2021/05/29 03:02:50;;;;;;;9.93;6.22;;;;;;;8.05;85.61;93430.84;2112486;28;20020;-85
2021/05/29 03:03:51;;;;;;;11.63;7.00;;;;;;;8.02;85.53;93428.94;2112177;28;21016;-85
2021/05/29 03:04:51;;;;;;;8.57;5.95;;;;;;;7.99;85.56;93428.97;2114576;28;20039;-85
2021/05/29 03:05:52;;;;;;;11.73;5.88;;;;;;;8.08;84.92;93426.66;2112109;28;20019;-86
2021/05/29 03:06:53;;;;;;;8.48;5.68;;;;;;;8.17;84.93;93428.88;2104675;28;20043;-86
2021/05/29 03:07:53;;;;;;;10.88;6.70;;;;;;;8.13;85.30;93428.13;2104011;28;20031;-85
2021/05/29 03:08:56;;;;;;;8.55;6.38;;;;;;;8.15;85.61;93421.25;2103603;28;20028;-85
2021/05/29 03:09:57;;;;;;;8.10;6.28;;;;;;;8.16;86.26;93424.66;2104257;28;20480;-85
2021/05/29 03:10:58;;;;;;;8.55;6.38;;;;;;;8.15;86.57;93420.50;2112149;28;20035;-86
2021/05/29 03:11:59;;;;;;;6.75;5.82;;;;;;;8.08;86.69;93416.75;2095317;28;20032;-85
2021/05/29 03:13:00;;;;;;;10.90;6.00;;;;;;;8.08;85.74;93427.41;2100323;28;20116;-85
2021/05/29 03:14:00;;;;;;;6.95;5.65;;;;;;;8.03;84.96;93424.38;2099556;28;20052;-84
2021/05/29 03:15:04;;;;;;;9.60;6.63;;;;;;;8.01;85.32;93426.69;2103936;28;20024;-85
2021/05/29 03:16:05;;;;;;;7.57;6.22;;;;;;;7.99;85.23;93423.66;2111903;28;20039;-85
2021/05/29 03:17:06;;;;;;;9.50;6.60;;;;;;;8.05;85.52;93428.19;2105883;28;20114;-85
2021/05/29 03:18:06;;;;;;;6.97;5.97;;;;;;;8.09;85.38;93422.81;2098253;28;20067;-85
2021/05/29 03:19:07;;;;;;;8.73;6.30;;;;;;;8.07;86.24;93427.78;2098756;28;20035;-85
2021/05/29 03:20:10;;;;;;;7.72;6.28;;;;;;;8.01;86.26;93424.03;2106693;28;20031;-86
2021/05/29 03:21:11;;;;;;;7.35;6.60;;;;;;;7.97;85.77;93426.72;2098957;28;20029;-85
2021/05/29 03:22:12;;;;;;;12.43;5.97;;;;;;;7.99;85.45;93428.97;2106707;28;20070;-86
2021/05/29 03:23:13;;;;;;;7.80;6.50;;;;;;;7.95;85.92;93426.34;2106604;28;20155;-86
2021/05/29 03:24:13;;;;;;;8.90;6.32;;;;;;;8.01;86.46;93424.78;2098048;28;20491;-85
2021/05/29 03:25:15;;;;;;;7.38;6.13;;;;;;;7.97;85.43;93429.38;2100083;28;20115;-85
2021/05/29 03:26:16;;;;;;;7.38;5.90;;;;;;;7.96;85.07;93425.19;2098522;28;20021;-85
2021/05/29 03:27:18;;;;;;;6.80;6.15;;;;;;;7.96;85.41;93433.19;2106634;28;20034;-85
2021/05/29 03:28:19;;;;;;;7.85;6.03;;;;;;;7.94;85.79;93421.41;2090091;28;20025;-85
2021/05/29 03:29:20;;;;;;;7.35;6.00;;;;;;;7.95;85.27;93439.66;2096617;28;20469;-87
2021/05/29 03:30:24;;;;;;;9.27;6.20;;;;;;;7.93;85.49;93428.63;2106596;28;20024;-87
2021/05/29 03:31:25;;;;;;;7.13;6.03;;;;;;;7.95;85.06;93433.59;2115720;27;20107;-86
2021/05/29 03:32:25;;;;;;;9.15;6.38;;;;;;;7.91;85.40;93425.63;2106651;28;20020;-86
2021/05/29 03:33:26;;;;;;;7.43;6.30;;;;;;;7.91;85.37;93430.19;2094953;28;20078;-86
2021/05/29 03:34:27;;;;;;;6.90;6.20;;;;;;;7.90;85.38;93426.78;2089647;28;20089;-87
2021/05/29 03:35:28;;;;;;;7.47;6.60;;;;;;;7.91;85.75;93430.19;2102935;28;20028;-86
2021/05/29 03:36:29;;;;;;;8.82;5.93;;;;;;;7.89;85.88;93422.56;2098122;28;20119;-86
2021/05/29 03:37:29;;;;;;;10.25;7.00;;;;;;;7.88;85.41;93426.38;2089960;28;20075;-86
2021/05/29 03:38:30;;;;;;;9.05;6.38;;;;;;;7.87;85.31;93427.53;2097962;28;20392;-87
2021/05/29 03:39:31;;;;;;;9.02;6.35;;;;;;;7.86;85.55;93434.03;2098047;28;20044;-87
2021/05/29 03:40:32;;;;;;;10.10;6.60;;;;;;;7.89;85.85;93427.91;2089831;28;20021;-86
2021/05/29 03:41:33;;;;;;;7.82;6.75;;;;;;;7.95;86.34;93441.56;2098032;28;20027;-86
2021/05/29 03:42:34;;;;;;;10.57;6.65;;;;;;;7.98;86.49;93438.88;2089925;28;20028;-84
2021/05/29 03:43:34;;;;;;;7.88;7.07;;;;;;;7.97;86.63;93434.69;2089616;28;20031;-86
2021/05/29 03:44:35;;;;;;;10.38;6.80;;;;;;;7.99;86.95;93432.41;2095964;28;20024;-86
2021/05/29 03:45:36;;;;;;;10.88;6.63;;;;;;;8.01;86.55;93437.34;2089778;28;20025;-85
2021/05/29 03:46:36;;;;;;;10.27;7.05;;;;;;;7.90;87.93;93436.63;2093501;28;20054;-86
2021/05/29 03:47:37;;;;;;;7.28;6.57;;;;;;;7.86;87.81;93430.56;2098197;28;20483;-86
2021/05/29 03:48:38;;;;;;;8.77;6.75;;;;;;;7.89;87.99;93435.88;2089808;28;20063;-87
2021/05/29 03:49:38;;;;;;;6.75;6.03;;;;;;;7.89;87.34;93437.78;2097828;28;20066;-86
2021/05/29 03:50:39;;;;;;;9.88;6.20;;;;;;;7.90;88.02;93436.63;2096705;28;20393;-86
2021/05/29 03:51:40;;;;;;;8.15;6.15;;;;;;;7.91;87.70;93430.19;2089700;28;20029;-86
2021/05/29 03:52:41;;;;;;;6.60;5.63;;;;;;;7.82;89.04;93439.34;2093550;28;20031;-86
2021/05/29 03:53:42;;;;;;;8.98;6.18;;;;;;;7.90;87.86;93437.41;2090001;28;20021;-86
2021/05/29 03:54:44;;;;;;;6.32;5.72;;;;;;;7.87;87.80;93437.44;2106497;28;20032;-86
2021/05/29 03:55:44;;;;;;;6.75;5.65;;;;;;;7.93;87.68;93435.88;2106522;28;20028;-86
2021/05/29 03:56:45;;;;;;;6.20;5.60;;;;;;;7.79;89.97;93442.78;2106485;28;20370;-86
2021/05/29 03:57:47;;;;;;;10.70;5.55;;;;;;;7.77;90.21;93439.00;2106278;28;20035;-86
2021/05/29 03:58:47;;;;;;;7.15;5.43;;;;;;;7.75;90.73;93442.06;2106216;28;20024;-85
2021/05/29 03:59:48;;;;;;;6.65;5.68;;;;;;;7.70;91.77;93444.38;2097872;28;20099;-85
2021/05/29 04:00:49;;;;;;;5.90;5.30;;;;;;;7.65;92.07;93440.22;2098114;28;20024;-85
2021/05/29 04:01:50;;;;;;;6.97;5.43;;;;;;;7.65;92.58;93442.13;2097889;28;20614;-85
2021/05/29 04:02:51;;;;;;;8.15;5.50;;;;;;;7.72;91.32;93444.72;2098004;28;20115;-86
2021/05/29 04:03:52;;;;;;;7.28;4.95;;;;;;;7.65;91.08;93447.44;2105954;28;20107;-85
2021/05/29 04:04:53;;;;;;;10.77;5.10;;;;;;;7.73;91.28;93448.94;2106155;28;20040;-85
2021/05/29 04:05:53;;;;;;;6.47;5.22;;;;;;;7.66;90.82;93446.28;2097797;28;20025;-86
2021/05/29 04:06:54;;;;;;;8.73;5.45;;;;;;;7.72;89.92;93444.72;2095171;28;20017;-85
2021/05/29 04:07:55;;;;;;;11.35;5.25;;;;;;;7.80;89.60;93446.22;2102870;28;20028;-85
2021/05/29 04:08:55;;;;;;;5.72;5.05;;;;;;;7.83;89.55;93446.19;2091094;28;20021;-85
2021/05/29 04:09:56;;;;;;;9.02;5.82;;;;;;;7.86;89.81;93441.22;2089625;28;20029;-86
2021/05/29 04:10:57;;;;;;;9.20;5.38;;;;;;;7.88;89.59;93444.25;2089385;28;20017;-85
2021/05/29 04:11:57;;;;;;;11.05;5.22;;;;;;;7.91;89.26;93441.59;2097993;28;20385;-87
2021/05/29 04:12:59;;;;;;;5.95;5.35;;;;;;;7.87;89.64;93448.84;2104809;28;20016;-85
2021/05/29 04:13:59;;;;;;;5.85;5.35;;;;;;;7.87;89.25;93451.50;2105388;28;20070;-85
2021/05/29 04:15:00;;;;;;;6.13;5.55;;;;;;;7.85;89.03;93451.13;2101527;28;20028;-85
2021/05/29 04:16:01;;;;;;;7.20;5.40;;;;;;;7.82;88.79;93446.59;2097582;28;20028;-85
2021/05/29 04:17:02;;;;;;;6.28;5.43;;;;;;;7.83;89.26;93454.19;2097917;28;20028;-85
2021/05/29 04:18:03;;;;;;;8.77;6.13;;;;;;;7.86;88.99;93451.88;2097774;28;20047;-85
2021/05/29 04:19:04;;;;;;;11.77;6.57;;;;;;;7.82;88.07;93454.56;2083019;28;20044;-84
2021/05/29 04:20:06;;;;;;;8.20;6.57;;;;;;;7.81;87.97;93453.03;2089734;28;20049;-84
2021/05/29 04:21:07;;;;;;;11.02;6.95;;;;;;;7.86;87.75;93457.19;2106458;27;20090;-85
2021/05/29 04:22:08;;;;;;;9.15;6.40;;;;;;;7.88;87.32;93455.66;2106173;28;20385;-85
2021/05/29 04:23:12;;;;;;;7.72;6.28;;;;;;;7.90;87.26;93449.94;2089838;28;20024;-85
2021/05/29 04:24:13;;;;;;;9.50;6.57;;;;;;;7.92;87.28;93455.66;2089924;28;20405;-85
2021/05/29 04:25:19;;;;;;;7.95;6.60;;;;;;;7.88;86.64;93450.34;2097788;28;20111;-85
2021/05/29 04:26:19;;;;;;;7.85;6.30;;;;;;;7.92;87.59;93458.31;2090898;28;20083;-85
2021/05/29 04:27:20;;;;;;;6.63;6.00;;;;;;;7.94;86.87;93459.41;2089376;28;20051;-85
2021/05/29 04:28:21;;;;;;;9.00;6.38;;;;;;;7.86;86.44;93451.88;2096654;28;20433;-86
2021/05/29 04:29:22;;;;;;;7.90;6.03;;;;;;;7.93;86.39;93452.59;2105672;28;20137;-86
2021/05/29 04:30:25;;;;;;;9.90;7.03;;;;;;;7.89;85.98;93451.09;2105952;28;20028;-86
2021/05/29 04:31:26;;;;;;;10.98;6.80;;;;;;;7.89;86.64;93456.41;2106362;28;20028;-85
2021/05/29 04:32:26;;;;;;;10.30;6.50;;;;;;;7.93;86.58;93455.25;2106011;28;20605;-85
2021/05/29 04:33:27;;;;;;;9.23;6.95;;;;;;;7.87;86.55;93456.81;2106101;28;20057;-85
2021/05/29 04:34:28;;;;;;;9.02;7.03;;;;;;;7.91;86.34;93465.53;2105996;28;20090;-85
2021/05/29 04:35:29;;;;;;;8.50;6.97;;;;;;;7.97;86.32;93460.56;2114467;28;20044;-86
2021/05/29 04:36:29;;;;;;;8.98;6.40;;;;;;;7.99;86.69;93452.94;2097713;28;20024;-85
2021/05/29 04:37:30;;;;;;;7.50;6.80;;;;;;;7.94;85.98;93458.66;2100445;28;20032;-85
2021/05/29 04:38:31;;;;;;;8.75;6.88;;;;;;;7.93;85.60;93457.16;2095018;28;20496;-86
2021/05/29 04:39:32;;;;;;;9.43;7.07;;;;;;;7.99;86.37;93467.00;2098102;28;20023;-86
2021/05/29 04:40:33;;;;;;;8.98;7.07;;;;;;;8.03;86.38;93467.75;2116686;27;20477;-86
2021/05/29 04:41:34;;;;;;;7.78;6.97;;;;;;;7.98;85.80;93462.06;2097783;28;20032;-86
2021/05/29 04:42:35;;;;;;;8.10;6.78;;;;;;;7.96;86.64;93470.44;2089235;28;20103;-86
2021/05/29 04:43:36;;;;;;;11.63;7.22;;;;;;;8.00;85.30;93465.09;2089473;28;20025;-87
2021/05/29 04:44:37;;;;;;;9.23;7.13;;;;;;;8.04;85.85;93469.25;2094235;28;20052;-86
2021/05/29 04:45:37;;;;;;;9.13;6.97;;;;;;;8.05;85.56;93465.44;2095823;28;20074;-86
2021/05/29 04:46:39;;;;;;;8.80;6.75;;;;;;;8.06;85.80;93463.53;2090132;28;20035;-86
2021/05/29 04:47:41;;;;;;;9.48;7.18;;;;;;;8.01;85.14;93466.63;2097559;28;20142;-86
2021/05/29 04:48:42;;;;;;;7.72;6.93;;;;;;;8.06;84.95;93466.94;2097844;28;20467;-87
2021/05/29 04:49:42;;;;;;;10.40;7.18;;;;;;;8.12;85.08;93469.97;2097481;28;20020;-86
2021/05/29 04:52:04;;;;;;;12.98;10.20;;;;;;;8.08;84.71;93469.25;2106455;28;20598;-86
2021/05/29 04:53:05;;;;;;;13.38;9.40;;;;;;;8.13;86.14;93462.75;2105828;28;20040;-86
2021/05/29 04:54:06;;;;;;;13.48;8.35;;;;;;;8.12;85.99;93469.19;2105583;28;20032;-86
2021/05/29 04:55:09;;;;;;;11.95;8.10;;;;;;;8.31;85.33;93461.47;2097711;28;20465;-86